Архив погоды в Кизляре

Метеограмма Кизляр
Понедельник, 22 Января
Время местн. Темп Ветер Видим Явления Облачность нижн/средн/верх Атм. давл. Влжн Точка росы ВНГО R Сост. почвы Tg s
Напр Скр Прв ур.ст ур.м изм
18:00 +4.3° С-В 3 - 2 км слабая непрерывная морось облачно 757 756 -1 100% +4.3° 1 км - - - -
15:00 +4.3° С-В 4 - 2 км дымка облачно 758 757 -1.9 99% +4.2° 1 км - - - -
12:00 +3.4° С-В 5 - 4 км дымка облачно 760 759 -2.6 97% +2.9° 1 км - - - -
09:00 +2.3° С,С-В 3 - 4 км дымка облачно 762 762 -1.6 99% +2.2° 1 км - - - -
06:00 +1.5° С,С-В 1 - 4 км дымка облачно 764 764 -1.3 99% +1.4° 1 км - Влажная (без луж) - -
03:00 +1.4° Ю-З 2 - 4 км дымка облачно 765 765 +0.1 100% +1.4° 1 км - - - -
00:00 +1.8° З 3 - 4 км дымка облачно 765 765 +1.4 100% +1.8° 1 км - - - -
Воскресенье, 21 Января
Время местн. Темп Ветер Видим Явления Облачность нижн/средн/верх Атм. давл. Влжн Точка росы ВНГО R Сост. почвы Tg s
Напр Скр Прв ур.ст ур.м изм
21:00 +2.2° З 2 - 4 км дымка облачно 764 764 +1.4 99% +2.1° 1 км - - - -
18:00 +3.1° З 2 - 4 км дымка облачно 763 762 +2.6 99% +3° 1 км - - - -
15:00 +4.9° В,Ю-В 6 12 10 км - облачно 760 760 +0.1 93% +3.8° 1 км - - - -
12:00 +5.2° В 9 11 10 км - облачно 760 760 -1.7 91% +3.9° 1 км - - - -
09:00 +4° В 8 13 4 км дымка облачно 762 761 -1 95% +3.3° 1 км - - - -
06:00 +1.2° В 4 - 4 км дымка облачно 763 762 -2.6 100% +1.2° 1 км - Влажная (без луж) - -
03:00 В 4 - 4 км дымка облачно 765 765 -1.3 100% 1 км - - - -
00:00 -1.8° В 3 - 4 км дымка переменная облачность 767 766 -0.8 100% -1.8° 1 км - - - -
Суббота, 20 Января
Время местн. Темп Ветер Видим Явления Облачность нижн/средн/верх Атм. давл. Влжн Точка росы ВНГО R Сост. почвы Tg s
Напр Скр Прв ур.ст ур.м изм
21:00 -1.6° В,Ю-В 3 - 4 км дымка ясно 767 767 -0.7 98% -1.9° более 2.5 км - - - -
18:00 +1.4° В,Ю-В 2 - 4 км дымка переменная облачность 768 768 +0.3 95% +0.7° 1 км - - - -
15:00 +6° С 1 - 10 км - переменная облачность 768 767 -0.4 72% +1.3° более 2.5 км - - - -
12:00 +1.6° З,С-З 3 - 10 км - облачно с прояснениями 768 768 -0.4 85% -0.7° 1 км - - - -
09:00 -1.2° З 2 - 4 км дымка облачно 768 768 +1.1 99% -1.4° 1 км - - - -
06:00 -1.8° З,С-З 4 - 4 км дымка облачно 767 767 +2.2 99% -1.9° 1 км - Влажная (без луж) - -
03:00 -1.9° З,С-З 4 - 4 км дымка облачно 765 765 +1.5 100% -1.9° 1 км - - - -
00:00 -2° С-З 3 - 4 км дымка облачно 764 763 +1.1 100% -2° 1 км - - - -
Пятница, 19 Января
Время местн. Темп Ветер Видим Явления Облачность нижн/средн/верх Атм. давл. Влжн Точка росы ВНГО R Сост. почвы Tg s
Напр Скр Прв ур.ст ур.м изм
21:00 -2.1° С 3 - 2 км дымка облачно 763 762 +1.6 100% -2.1° 1 км - - - -
18:00 -1.1° С 3 - 10 км дымка облачно 761 761 +1.6 100% -1.1° 1 км - - - -
15:00 +0.5° С,С-В 3 - 2 км дымка {морось} облачно 759 759 +0.8 100% +0.5° 1 км - - - -